sensor_id;sensor_type;location;lat;lon;timestamp;P1;durP1;ratioP1;P2;durP2;ratioP2
14688;SDS011;7432;48.728;9.154;2022-12-13T00:01:16;21.90;;;13.13;;
14688;SDS011;7432;48.728;9.154;2022-12-13T00:03:43;23.17;;;14.73;;
14688;SDS011;7432;48.728;9.154;2022-12-13T00:06:10;25.53;;;14.57;;
14688;SDS011;7432;48.728;9.154;2022-12-13T00:08:37;27.23;;;15.90;;
14688;SDS011;7432;48.728;9.154;2022-12-13T00:11:07;23.47;;;15.03;;
14688;SDS011;7432;48.728;9.154;2022-12-13T00:13:36;23.87;;;14.07;;
14688;SDS011;7432;48.728;9.154;2022-12-13T00:16:05;27.93;;;14.70;;
14688;SDS011;7432;48.728;9.154;2022-12-13T00:18:33;23.60;;;14.73;;
14688;SDS011;7432;48.728;9.154;2022-12-13T00:21:00;24.60;;;15.03;;
14688;SDS011;7432;48.728;9.154;2022-12-13T00:23:29;23.90;;;14.50;;
14688;SDS011;7432;48.728;9.154;2022-12-13T00:26:00;24.30;;;13.93;;
14688;SDS011;7432;48.728;9.154;2022-12-13T00:28:29;25.03;;;14.60;;
14688;SDS011;7432;48.728;9.154;2022-12-13T00:30:55;24.50;;;14.87;;
14688;SDS011;7432;48.728;9.154;2022-12-13T00:33:22;26.10;;;14.60;;
14688;SDS011;7432;48.728;9.154;2022-12-13T00:35:49;29.30;;;15.67;;
14688;SDS011;7432;48.728;9.154;2022-12-13T00:38:15;27.87;;;15.00;;
14688;SDS011;7432;48.728;9.154;2022-12-13T00:40:41;29.63;;;15.23;;
14688;SDS011;7432;48.728;9.154;2022-12-13T00:43:08;25.07;;;15.10;;
14688;SDS011;7432;48.728;9.154;2022-12-13T00:45:36;28.00;;;15.60;;
14688;SDS011;7432;48.728;9.154;2022-12-13T00:48:02;28.90;;;17.00;;
14688;SDS011;7432;48.728;9.154;2022-12-13T00:50:29;26.10;;;14.60;;
14688;SDS011;7432;48.728;9.154;2022-12-13T00:52:57;29.90;;;16.73;;
14688;SDS011;7432;48.728;9.154;2022-12-13T00:55:24;28.33;;;16.37;;
14688;SDS011;7432;48.728;9.154;2022-12-13T00:57:51;27.03;;;15.80;;
14688;SDS011;7432;48.728;9.154;2022-12-13T01:00:18;27.33;;;15.50;;
14688;SDS011;7432;48.728;9.154;2022-12-13T01:02:46;29.30;;;15.90;;
14688;SDS011;7432;48.728;9.154;2022-12-13T01:05:13;32.27;;;17.13;;
14688;SDS011;7432;48.728;9.154;2022-12-13T01:07:39;28.50;;;15.43;;
14688;SDS011;7432;48.728;9.154;2022-12-13T01:10:08;27.73;;;16.53;;
14688;SDS011;7432;48.728;9.154;2022-12-13T01:12:36;26.97;;;14.40;;
14688;SDS011;7432;48.728;9.154;2022-12-13T01:15:03;28.03;;;15.10;;
14688;SDS011;7432;48.728;9.154;2022-12-13T01:17:32;24.07;;;14.53;;
14688;SDS011;7432;48.728;9.154;2022-12-13T01:20:00;24.20;;;14.70;;
14688;SDS011;7432;48.728;9.154;2022-12-13T01:22:27;28.90;;;15.87;;
14688;SDS011;7432;48.728;9.154;2022-12-13T01:24:53;24.40;;;14.60;;
14688;SDS011;7432;48.728;9.154;2022-12-13T01:27:20;25.03;;;15.30;;
14688;SDS011;7432;48.728;9.154;2022-12-13T01:29:46;25.23;;;16.27;;
14688;SDS011;7432;48.728;9.154;2022-12-13T01:32:12;32.23;;;16.53;;
14688;SDS011;7432;48.728;9.154;2022-12-13T01:34:39;27.40;;;15.47;;
14688;SDS011;7432;48.728;9.154;2022-12-13T01:37:07;25.80;;;15.70;;
14688;SDS011;7432;48.728;9.154;2022-12-13T01:39:33;28.83;;;16.60;;
14688;SDS011;7432;48.728;9.154;2022-12-13T01:41:59;28.87;;;16.80;;
14688;SDS011;7432;48.728;9.154;2022-12-13T01:47:25;30.93;;;15.33;;
14688;SDS011;7432;48.728;9.154;2022-12-13T01:49:55;27.43;;;15.70;;
14688;SDS011;7432;48.728;9.154;2022-12-13T01:52:26;27.07;;;16.63;;
14688;SDS011;7432;48.728;9.154;2022-12-13T01:54:53;26.30;;;14.80;;
14688;SDS011;7432;48.728;9.154;2022-12-13T01:57:22;26.30;;;15.37;;
14688;SDS011;7432;48.728;9.154;2022-12-13T01:59:49;27.20;;;15.07;;
14688;SDS011;7432;48.728;9.154;2022-12-13T02:02:19;25.47;;;15.03;;
14688;SDS011;7432;48.728;9.154;2022-12-13T02:04:48;24.03;;;15.00;;
14688;SDS011;7432;48.728;9.154;2022-12-13T02:07:18;27.03;;;14.90;;
14688;SDS011;7432;48.728;9.154;2022-12-13T02:09:51;26.80;;;15.40;;
14688;SDS011;7432;48.728;9.154;2022-12-13T02:12:20;25.97;;;14.90;;
14688;SDS011;7432;48.728;9.154;2022-12-13T02:14:46;28.77;;;16.67;;
14688;SDS011;7432;48.728;9.154;2022-12-13T02:17:15;29.93;;;16.03;;
14688;SDS011;7432;48.728;9.154;2022-12-13T02:19:57;24.87;;;15.53;;
14688;SDS011;7432;48.728;9.154;2022-12-13T02:22:50;26.43;;;15.77;;
14688;SDS011;7432;48.728;9.154;2022-12-13T02:25:36;26.87;;;15.67;;
14688;SDS011;7432;48.728;9.154;2022-12-13T02:28:24;26.17;;;14.13;;
14688;SDS011;7432;48.728;9.154;2022-12-13T02:31:08;24.67;;;15.07;;
14688;SDS011;7432;48.728;9.154;2022-12-13T02:33:43;28.83;;;14.93;;
14688;SDS011;7432;48.728;9.154;2022-12-13T02:36:18;27.27;;;15.67;;
14688;SDS011;7432;48.728;9.154;2022-12-13T02:38:51;28.17;;;15.27;;
14688;SDS011;7432;48.728;9.154;2022-12-13T02:41:24;27.90;;;15.53;;
14688;SDS011;7432;48.728;9.154;2022-12-13T02:43:58;26.83;;;14.53;;
14688;SDS011;7432;48.728;9.154;2022-12-13T02:46:33;26.20;;;15.17;;
14688;SDS011;7432;48.728;9.154;2022-12-13T02:49:03;26.00;;;14.80;;
14688;SDS011;7432;48.728;9.154;2022-12-13T02:51:32;27.30;;;14.83;;
14688;SDS011;7432;48.728;9.154;2022-12-13T02:54:00;25.60;;;14.10;;
14688;SDS011;7432;48.728;9.154;2022-12-13T02:56:26;25.37;;;15.10;;
14688;SDS011;7432;48.728;9.154;2022-12-13T02:58:53;27.30;;;15.50;;
14688;SDS011;7432;48.728;9.154;2022-12-13T03:01:26;24.93;;;14.77;;
14688;SDS011;7432;48.728;9.154;2022-12-13T03:04:09;22.40;;;13.70;;
14688;SDS011;7432;48.728;9.154;2022-12-13T03:06:45;24.43;;;13.90;;
14688;SDS011;7432;48.728;9.154;2022-12-13T03:09:25;21.73;;;13.13;;
14688;SDS011;7432;48.728;9.154;2022-12-13T03:12:05;23.93;;;14.40;;
14688;SDS011;7432;48.728;9.154;2022-12-13T03:15:02;23.97;;;13.43;;
14688;SDS011;7432;48.728;9.154;2022-12-13T03:17:40;25.40;;;14.33;;
14688;SDS011;7432;48.728;9.154;2022-12-13T03:20:12;21.53;;;13.07;;
14688;SDS011;7432;48.728;9.154;2022-12-13T03:22:40;22.43;;;12.90;;
14688;SDS011;7432;48.728;9.154;2022-12-13T03:25:07;18.63;;;11.60;;
14688;SDS011;7432;48.728;9.154;2022-12-13T03:27:34;25.10;;;13.47;;
14688;SDS011;7432;48.728;9.154;2022-12-13T03:30:00;24.43;;;13.33;;
14688;SDS011;7432;48.728;9.154;2022-12-13T03:32:27;23.17;;;12.77;;
14688;SDS011;7432;48.728;9.154;2022-12-13T03:34:55;19.47;;;11.97;;
14688;SDS011;7432;48.728;9.154;2022-12-13T03:37:21;21.57;;;11.17;;
14688;SDS011;7432;48.728;9.154;2022-12-13T03:39:47;19.07;;;10.67;;
14688;SDS011;7432;48.728;9.154;2022-12-13T03:42:14;18.70;;;10.77;;
14688;SDS011;7432;48.728;9.154;2022-12-13T03:44:41;20.07;;;11.17;;
14688;SDS011;7432;48.728;9.154;2022-12-13T03:47:08;17.57;;;10.47;;
14688;SDS011;7432;48.728;9.154;2022-12-13T03:49:34;19.47;;;10.97;;
14688;SDS011;7432;48.728;9.154;2022-12-13T03:52:02;18.63;;;10.77;;
14688;SDS011;7432;48.728;9.154;2022-12-13T03:54:28;20.57;;;11.07;;
14688;SDS011;7432;48.728;9.154;2022-12-13T03:56:55;20.37;;;10.97;;
14688;SDS011;7432;48.728;9.154;2022-12-13T03:59:22;15.97;;;9.90;;
14688;SDS011;7432;48.728;9.154;2022-12-13T04:01:48;17.60;;;11.00;;
14688;SDS011;7432;48.728;9.154;2022-12-13T04:04:14;17.50;;;10.50;;
14688;SDS011;7432;48.728;9.154;2022-12-13T04:06:41;20.10;;;10.70;;
14688;SDS011;7432;48.728;9.154;2022-12-13T04:09:08;16.90;;;10.17;;
14688;SDS011;7432;48.728;9.154;2022-12-13T04:11:35;18.27;;;10.13;;
14688;SDS011;7432;48.728;9.154;2022-12-13T04:14:19;15.73;;;10.13;;
14688;SDS011;7432;48.728;9.154;2022-12-13T04:16:45;17.07;;;9.23;;
14688;SDS011;7432;48.728;9.154;2022-12-13T04:19:12;17.80;;;9.50;;
14688;SDS011;7432;48.728;9.154;2022-12-13T04:21:38;15.97;;;9.23;;
14688;SDS011;7432;48.728;9.154;2022-12-13T04:24:05;16.23;;;9.70;;
14688;SDS011;7432;48.728;9.154;2022-12-13T04:26:33;18.27;;;10.50;;
14688;SDS011;7432;48.728;9.154;2022-12-13T04:28:59;16.17;;;9.87;;
14688;SDS011;7432;48.728;9.154;2022-12-13T04:31:25;18.60;;;10.03;;
14688;SDS011;7432;48.728;9.154;2022-12-13T04:33:52;17.53;;;10.10;;
14688;SDS011;7432;48.728;9.154;2022-12-13T04:36:18;18.37;;;9.47;;
14688;SDS011;7432;48.728;9.154;2022-12-13T04:38:49;16.07;;;9.73;;
14688;SDS011;7432;48.728;9.154;2022-12-13T04:41:16;16.97;;;9.37;;
14688;SDS011;7432;48.728;9.154;2022-12-13T04:43:50;21.30;;;10.57;;
14688;SDS011;7432;48.728;9.154;2022-12-13T04:46:17;15.70;;;10.30;;
14688;SDS011;7432;48.728;9.154;2022-12-13T04:48:44;17.63;;;10.30;;
14688;SDS011;7432;48.728;9.154;2022-12-13T04:51:10;16.20;;;9.53;;
14688;SDS011;7432;48.728;9.154;2022-12-13T04:53:37;16.17;;;9.93;;
14688;SDS011;7432;48.728;9.154;2022-12-13T04:56:03;19.70;;;9.83;;
14688;SDS011;7432;48.728;9.154;2022-12-13T04:58:31;18.10;;;9.70;;
14688;SDS011;7432;48.728;9.154;2022-12-13T05:00:58;18.33;;;10.07;;
14688;SDS011;7432;48.728;9.154;2022-12-13T05:03:25;17.03;;;9.83;;
14688;SDS011;7432;48.728;9.154;2022-12-13T05:05:52;18.67;;;9.67;;
14688;SDS011;7432;48.728;9.154;2022-12-13T05:08:18;18.47;;;10.47;;
14688;SDS011;7432;48.728;9.154;2022-12-13T05:10:45;16.27;;;9.67;;
14688;SDS011;7432;48.728;9.154;2022-12-13T05:13:11;18.97;;;10.13;;
14688;SDS011;7432;48.728;9.154;2022-12-13T05:15:37;17.13;;;10.53;;
14688;SDS011;7432;48.728;9.154;2022-12-13T05:18:05;17.47;;;9.73;;
14688;SDS011;7432;48.728;9.154;2022-12-13T05:20:33;16.87;;;9.73;;
14688;SDS011;7432;48.728;9.154;2022-12-13T05:23:00;15.07;;;8.80;;
14688;SDS011;7432;48.728;9.154;2022-12-13T05:25:26;15.20;;;9.17;;
14688;SDS011;7432;48.728;9.154;2022-12-13T05:27:53;16.23;;;9.20;;
14688;SDS011;7432;48.728;9.154;2022-12-13T05:30:21;19.07;;;10.13;;
14688;SDS011;7432;48.728;9.154;2022-12-13T05:32:47;17.03;;;9.43;;
14688;SDS011;7432;48.728;9.154;2022-12-13T05:35:15;16.47;;;9.37;;
14688;SDS011;7432;48.728;9.154;2022-12-13T05:37:42;15.53;;;10.00;;
14688;SDS011;7432;48.728;9.154;2022-12-13T05:40:08;19.20;;;9.60;;
14688;SDS011;7432;48.728;9.154;2022-12-13T05:42:35;16.73;;;8.83;;
14688;SDS011;7432;48.728;9.154;2022-12-13T05:45:02;13.87;;;8.53;;
14688;SDS011;7432;48.728;9.154;2022-12-13T05:47:29;16.83;;;9.53;;
14688;SDS011;7432;48.728;9.154;2022-12-13T05:49:55;18.43;;;10.27;;
14688;SDS011;7432;48.728;9.154;2022-12-13T05:52:23;17.80;;;9.97;;
14688;SDS011;7432;48.728;9.154;2022-12-13T05:54:52;16.40;;;9.37;;
14688;SDS011;7432;48.728;9.154;2022-12-13T05:57:19;19.90;;;9.50;;
14688;SDS011;7432;48.728;9.154;2022-12-13T05:59:45;15.17;;;8.90;;
14688;SDS011;7432;48.728;9.154;2022-12-13T06:02:12;13.60;;;8.47;;
14688;SDS011;7432;48.728;9.154;2022-12-13T06:04:38;19.03;;;9.90;;
14688;SDS011;7432;48.728;9.154;2022-12-13T06:07:05;14.37;;;9.03;;
14688;SDS011;7432;48.728;9.154;2022-12-13T06:09:32;18.70;;;9.77;;
14688;SDS011;7432;48.728;9.154;2022-12-13T06:11:59;17.67;;;9.87;;
14688;SDS011;7432;48.728;9.154;2022-12-13T06:14:25;12.83;;;8.13;;
14688;SDS011;7432;48.728;9.154;2022-12-13T06:16:51;13.53;;;8.47;;
14688;SDS011;7432;48.728;9.154;2022-12-13T06:19:18;15.23;;;8.83;;
14688;SDS011;7432;48.728;9.154;2022-12-13T06:21:45;19.03;;;10.43;;
14688;SDS011;7432;48.728;9.154;2022-12-13T06:24:15;21.87;;;10.87;;
14688;SDS011;7432;48.728;9.154;2022-12-13T06:26:43;23.37;;;12.07;;
14688;SDS011;7432;48.728;9.154;2022-12-13T06:29:10;25.80;;;12.70;;
14688;SDS011;7432;48.728;9.154;2022-12-13T06:31:36;24.07;;;11.30;;
14688;SDS011;7432;48.728;9.154;2022-12-13T06:34:03;24.13;;;10.20;;
14688;SDS011;7432;48.728;9.154;2022-12-13T06:36:30;16.87;;;8.67;;
14688;SDS011;7432;48.728;9.154;2022-12-13T06:39:00;19.10;;;9.50;;
14688;SDS011;7432;48.728;9.154;2022-12-13T06:41:27;15.97;;;8.77;;
14688;SDS011;7432;48.728;9.154;2022-12-13T06:43:54;18.47;;;9.13;;
14688;SDS011;7432;48.728;9.154;2022-12-13T06:46:21;15.80;;;9.07;;
14688;SDS011;7432;48.728;9.154;2022-12-13T06:48:47;14.57;;;8.53;;
14688;SDS011;7432;48.728;9.154;2022-12-13T06:51:14;16.13;;;8.80;;
14688;SDS011;7432;48.728;9.154;2022-12-13T06:53:41;16.73;;;8.97;;
14688;SDS011;7432;48.728;9.154;2022-12-13T06:56:08;16.83;;;9.37;;
14688;SDS011;7432;48.728;9.154;2022-12-13T06:58:36;12.40;;;7.97;;
14688;SDS011;7432;48.728;9.154;2022-12-13T07:01:05;13.67;;;9.03;;
14688;SDS011;7432;48.728;9.154;2022-12-13T07:03:33;15.00;;;8.67;;
14688;SDS011;7432;48.728;9.154;2022-12-13T07:06:02;15.17;;;8.33;;
14688;SDS011;7432;48.728;9.154;2022-12-13T07:08:30;13.63;;;7.43;;
14688;SDS011;7432;48.728;9.154;2022-12-13T07:10:56;15.00;;;8.73;;
14688;SDS011;7432;48.728;9.154;2022-12-13T07:13:23;16.17;;;8.53;;
14688;SDS011;7432;48.728;9.154;2022-12-13T07:15:49;15.97;;;9.20;;
14688;SDS011;7432;48.728;9.154;2022-12-13T07:18:17;15.00;;;8.83;;
14688;SDS011;7432;48.728;9.154;2022-12-13T07:20:44;15.20;;;8.77;;
14688;SDS011;7432;48.728;9.154;2022-12-13T07:23:11;16.50;;;8.40;;
14688;SDS011;7432;48.728;9.154;2022-12-13T07:25:38;19.00;;;9.03;;
14688;SDS011;7432;48.728;9.154;2022-12-13T07:28:05;17.20;;;9.43;;
14688;SDS011;7432;48.728;9.154;2022-12-13T07:30:35;13.23;;;7.83;;
14688;SDS011;7432;48.728;9.154;2022-12-13T07:33:03;14.07;;;8.10;;
14688;SDS011;7432;48.728;9.154;2022-12-13T07:35:31;15.03;;;8.50;;
14688;SDS011;7432;48.728;9.154;2022-12-13T07:37:58;14.73;;;8.17;;
14688;SDS011;7432;48.728;9.154;2022-12-13T07:40:25;13.47;;;8.17;;
14688;SDS011;7432;48.728;9.154;2022-12-13T07:42:52;14.30;;;8.83;;
14688;SDS011;7432;48.728;9.154;2022-12-13T07:45:19;14.23;;;7.73;;
14688;SDS011;7432;48.728;9.154;2022-12-13T07:47:46;14.63;;;8.30;;
14688;SDS011;7432;48.728;9.154;2022-12-13T07:50:13;15.37;;;8.97;;
14688;SDS011;7432;48.728;9.154;2022-12-13T07:52:41;14.23;;;8.13;;
14688;SDS011;7432;48.728;9.154;2022-12-13T07:55:08;12.73;;;8.00;;
14688;SDS011;7432;48.728;9.154;2022-12-13T07:57:34;15.37;;;8.80;;
14688;SDS011;7432;48.728;9.154;2022-12-13T08:00:01;13.07;;;8.63;;
14688;SDS011;7432;48.728;9.154;2022-12-13T08:02:28;12.03;;;8.07;;
14688;SDS011;7432;48.728;9.154;2022-12-13T08:04:54;16.97;;;8.03;;
14688;SDS011;7432;48.728;9.154;2022-12-13T08:07:21;14.87;;;8.47;;
14688;SDS011;7432;48.728;9.154;2022-12-13T08:09:49;13.47;;;7.77;;
14688;SDS011;7432;48.728;9.154;2022-12-13T08:12:15;15.90;;;8.40;;
14688;SDS011;7432;48.728;9.154;2022-12-13T08:14:42;13.67;;;8.43;;
14688;SDS011;7432;48.728;9.154;2022-12-13T08:17:08;13.97;;;8.57;;
14688;SDS011;7432;48.728;9.154;2022-12-13T08:19:34;13.03;;;7.70;;
14688;SDS011;7432;48.728;9.154;2022-12-13T08:22:01;12.33;;;7.63;;
14688;SDS011;7432;48.728;9.154;2022-12-13T08:24:28;13.40;;;8.23;;
14688;SDS011;7432;48.728;9.154;2022-12-13T08:26:58;11.93;;;8.43;;
14688;SDS011;7432;48.728;9.154;2022-12-13T08:29:26;12.73;;;8.33;;
14688;SDS011;7432;48.728;9.154;2022-12-13T08:31:53;15.07;;;8.37;;
14688;SDS011;7432;48.728;9.154;2022-12-13T08:34:19;14.57;;;8.73;;
14688;SDS011;7432;48.728;9.154;2022-12-13T08:36:45;14.33;;;8.43;;
14688;SDS011;7432;48.728;9.154;2022-12-13T08:39:12;13.70;;;8.30;;
14688;SDS011;7432;48.728;9.154;2022-12-13T08:41:38;15.30;;;8.90;;
14688;SDS011;7432;48.728;9.154;2022-12-13T08:44:06;14.40;;;9.27;;
14688;SDS011;7432;48.728;9.154;2022-12-13T08:46:32;16.35;;;10.15;;
14688;SDS011;7432;48.728;9.154;2022-12-13T08:48:59;14.33;;;8.73;;
14688;SDS011;7432;48.728;9.154;2022-12-13T08:51:25;15.23;;;8.93;;
14688;SDS011;7432;48.728;9.154;2022-12-13T08:53:51;16.10;;;9.70;;
14688;SDS011;7432;48.728;9.154;2022-12-13T08:56:18;14.80;;;8.93;;
14688;SDS011;7432;48.728;9.154;2022-12-13T08:58:47;13.93;;;9.03;;
14688;SDS011;7432;48.728;9.154;2022-12-13T09:01:16;16.37;;;9.20;;
14688;SDS011;7432;48.728;9.154;2022-12-13T09:03:43;17.60;;;9.77;;
14688;SDS011;7432;48.728;9.154;2022-12-13T09:06:11;16.20;;;9.23;;
14688;SDS011;7432;48.728;9.154;2022-12-13T09:08:39;17.73;;;9.80;;
14688;SDS011;7432;48.728;9.154;2022-12-13T09:11:06;17.60;;;10.03;;
14688;SDS011;7432;48.728;9.154;2022-12-13T09:13:34;17.00;;;9.73;;
14688;SDS011;7432;48.728;9.154;2022-12-13T09:16:02;16.63;;;9.40;;
14688;SDS011;7432;48.728;9.154;2022-12-13T09:18:31;18.70;;;11.23;;
14688;SDS011;7432;48.728;9.154;2022-12-13T09:20:57;17.23;;;9.83;;
14688;SDS011;7432;48.728;9.154;2022-12-13T09:23:24;17.93;;;10.20;;
14688;SDS011;7432;48.728;9.154;2022-12-13T09:25:53;18.43;;;9.83;;
14688;SDS011;7432;48.728;9.154;2022-12-13T09:28:21;17.67;;;10.80;;
14688;SDS011;7432;48.728;9.154;2022-12-13T09:30:48;20.23;;;11.17;;
14688;SDS011;7432;48.728;9.154;2022-12-13T09:33:14;18.20;;;10.70;;
14688;SDS011;7432;48.728;9.154;2022-12-13T09:35:42;18.67;;;10.10;;
14688;SDS011;7432;48.728;9.154;2022-12-13T09:38:09;19.47;;;10.90;;
14688;SDS011;7432;48.728;9.154;2022-12-13T09:40:35;18.90;;;10.47;;
14688;SDS011;7432;48.728;9.154;2022-12-13T09:43:03;16.63;;;9.97;;
14688;SDS011;7432;48.728;9.154;2022-12-13T09:45:31;16.13;;;10.90;;
14688;SDS011;7432;48.728;9.154;2022-12-13T09:48:00;16.77;;;10.10;;
14688;SDS011;7432;48.728;9.154;2022-12-13T09:50:28;17.83;;;10.67;;
14688;SDS011;7432;48.728;9.154;2022-12-13T09:52:58;19.27;;;10.20;;
14688;SDS011;7432;48.728;9.154;2022-12-13T09:55:27;16.87;;;9.17;;
14688;SDS011;7432;48.728;9.154;2022-12-13T09:57:56;16.43;;;9.43;;
14688;SDS011;7432;48.728;9.154;2022-12-13T10:00:24;17.63;;;10.17;;
14688;SDS011;7432;48.728;9.154;2022-12-13T10:02:57;16.23;;;9.90;;
14688;SDS011;7432;48.728;9.154;2022-12-13T10:05:26;15.80;;;9.43;;
14688;SDS011;7432;48.728;9.154;2022-12-13T10:07:56;16.90;;;9.53;;
14688;SDS011;7432;48.728;9.154;2022-12-13T10:10:29;19.87;;;10.03;;
14688;SDS011;7432;48.728;9.154;2022-12-13T10:13:10;16.73;;;10.00;;
14688;SDS011;7432;48.728;9.154;2022-12-13T10:15:43;16.03;;;9.77;;
14688;SDS011;7432;48.728;9.154;2022-12-13T10:18:15;14.37;;;8.83;;
14688;SDS011;7432;48.728;9.154;2022-12-13T10:20:49;17.27;;;9.10;;
14688;SDS011;7432;48.728;9.154;2022-12-13T10:23:18;17.40;;;10.03;;
14688;SDS011;7432;48.728;9.154;2022-12-13T10:25:46;14.63;;;8.40;;
14688;SDS011;7432;48.728;9.154;2022-12-13T10:28:15;15.80;;;9.03;;
14688;SDS011;7432;48.728;9.154;2022-12-13T10:30:43;14.80;;;8.03;;
14688;SDS011;7432;48.728;9.154;2022-12-13T10:33:18;15.90;;;8.50;;
14688;SDS011;7432;48.728;9.154;2022-12-13T10:36:00;14.03;;;7.77;;
14688;SDS011;7432;48.728;9.154;2022-12-13T10:38:29;20.07;;;9.13;;
14688;SDS011;7432;48.728;9.154;2022-12-13T10:40:59;13.43;;;8.17;;
14688;SDS011;7432;48.728;9.154;2022-12-13T10:43:26;15.10;;;8.50;;
14688;SDS011;7432;48.728;9.154;2022-12-13T10:45:58;12.37;;;7.67;;
14688;SDS011;7432;48.728;9.154;2022-12-13T10:48:27;13.27;;;7.93;;
14688;SDS011;7432;48.728;9.154;2022-12-13T10:51:00;16.23;;;8.60;;
14688;SDS011;7432;48.728;9.154;2022-12-13T10:53:30;15.23;;;8.10;;
14688;SDS011;7432;48.728;9.154;2022-12-13T10:55:59;13.37;;;8.27;;
14688;SDS011;7432;48.728;9.154;2022-12-13T10:58:33;18.00;;;8.30;;
14688;SDS011;7432;48.728;9.154;2022-12-13T11:01:07;16.07;;;7.23;;
14688;SDS011;7432;48.728;9.154;2022-12-13T11:03:54;14.00;;;8.67;;
14688;SDS011;7432;48.728;9.154;2022-12-13T11:06:21;12.25;;;8.27;;
14688;SDS011;7432;48.728;9.154;2022-12-13T11:08:49;12.93;;;8.03;;
14688;SDS011;7432;48.728;9.154;2022-12-13T11:11:17;13.23;;;8.37;;
14688;SDS011;7432;48.728;9.154;2022-12-13T11:13:53;14.43;;;8.37;;
14688;SDS011;7432;48.728;9.154;2022-12-13T11:16:25;16.73;;;8.77;;
14688;SDS011;7432;48.728;9.154;2022-12-13T11:18:55;15.30;;;8.20;;
14688;SDS011;7432;48.728;9.154;2022-12-13T11:21:25;14.60;;;7.83;;
14688;SDS011;7432;48.728;9.154;2022-12-13T11:23:55;14.80;;;7.37;;
14688;SDS011;7432;48.728;9.154;2022-12-13T11:26:24;15.33;;;7.20;;
14688;SDS011;7432;48.728;9.154;2022-12-13T11:28:56;13.13;;;7.77;;
14688;SDS011;7432;48.728;9.154;2022-12-13T11:31:32;14.37;;;7.67;;
14688;SDS011;7432;48.728;9.154;2022-12-13T11:34:10;10.83;;;7.37;;
14688;SDS011;7432;48.728;9.154;2022-12-13T11:36:49;12.43;;;7.20;;
14688;SDS011;7432;48.728;9.154;2022-12-13T11:39:26;12.50;;;6.50;;
14688;SDS011;7432;48.728;9.154;2022-12-13T11:41:56;13.70;;;7.13;;
14688;SDS011;7432;48.728;9.154;2022-12-13T11:44:32;12.17;;;7.00;;
14688;SDS011;7432;48.728;9.154;2022-12-13T11:47:05;11.10;;;6.80;;
14688;SDS011;7432;48.728;9.154;2022-12-13T11:49:41;11.20;;;6.70;;
14688;SDS011;7432;48.728;9.154;2022-12-13T11:52:12;13.30;;;6.70;;
14688;SDS011;7432;48.728;9.154;2022-12-13T11:54:47;12.13;;;7.30;;
14688;SDS011;7432;48.728;9.154;2022-12-13T11:57:21;10.83;;;7.00;;
14688;SDS011;7432;48.728;9.154;2022-12-13T11:59:57;15.00;;;6.40;;
14688;SDS011;7432;48.728;9.154;2022-12-13T12:02:31;12.60;;;6.73;;
14688;SDS011;7432;48.728;9.154;2022-12-13T12:05:01;15.80;;;6.47;;
14688;SDS011;7432;48.728;9.154;2022-12-13T12:07:33;13.90;;;6.57;;
14688;SDS011;7432;48.728;9.154;2022-12-13T12:10:09;11.47;;;6.30;;
14688;SDS011;7432;48.728;9.154;2022-12-13T12:12:49;11.63;;;6.17;;
14688;SDS011;7432;48.728;9.154;2022-12-13T12:15:21;13.07;;;7.27;;
14688;SDS011;7432;48.728;9.154;2022-12-13T12:17:51;10.57;;;6.43;;
14688;SDS011;7432;48.728;9.154;2022-12-13T12:20:18;12.00;;;7.20;;
14688;SDS011;7432;48.728;9.154;2022-12-13T12:22:50;11.13;;;6.50;;
14688;SDS011;7432;48.728;9.154;2022-12-13T12:25:28;11.50;;;6.87;;
14688;SDS011;7432;48.728;9.154;2022-12-13T12:28:03;13.40;;;7.20;;
14688;SDS011;7432;48.728;9.154;2022-12-13T12:30:43;10.20;;;6.60;;
14688;SDS011;7432;48.728;9.154;2022-12-13T12:33:21;10.50;;;6.30;;
14688;SDS011;7432;48.728;9.154;2022-12-13T12:36:02;12.23;;;6.63;;
14688;SDS011;7432;48.728;9.154;2022-12-13T12:38:50;12.50;;;6.10;;
14688;SDS011;7432;48.728;9.154;2022-12-13T12:41:31;9.17;;;5.93;;
14688;SDS011;7432;48.728;9.154;2022-12-13T12:44:09;10.57;;;6.13;;
14688;SDS011;7432;48.728;9.154;2022-12-13T12:46:46;11.87;;;5.83;;
14688;SDS011;7432;48.728;9.154;2022-12-13T12:49:40;10.87;;;6.23;;
14688;SDS011;7432;48.728;9.154;2022-12-13T12:52:20;11.60;;;6.50;;
14688;SDS011;7432;48.728;9.154;2022-12-13T12:54:54;12.43;;;6.10;;
14688;SDS011;7432;48.728;9.154;2022-12-13T12:57:31;11.17;;;5.80;;
14688;SDS011;7432;48.728;9.154;2022-12-13T13:00:08;10.23;;;6.23;;
14688;SDS011;7432;48.728;9.154;2022-12-13T13:02:37;11.37;;;6.20;;
14688;SDS011;7432;48.728;9.154;2022-12-13T13:05:10;14.80;;;6.43;;
14688;SDS011;7432;48.728;9.154;2022-12-13T13:07:43;9.50;;;6.37;;
14688;SDS011;7432;48.728;9.154;2022-12-13T13:10:16;9.37;;;5.70;;
14688;SDS011;7432;48.728;9.154;2022-12-13T13:12:45;10.93;;;5.87;;
14688;SDS011;7432;48.728;9.154;2022-12-13T13:21:25;13.67;;;7.70;;
14688;SDS011;7432;48.728;9.154;2022-12-13T13:24:16;13.07;;;6.40;;
14688;SDS011;7432;48.728;9.154;2022-12-13T13:26:48;9.20;;;5.60;;
14688;SDS011;7432;48.728;9.154;2022-12-13T13:32:23;9.93;;;5.53;;
14688;SDS011;7432;48.728;9.154;2022-12-13T13:35:44;12.33;;;5.80;;
14688;SDS011;7432;48.728;9.154;2022-12-13T13:37:57;14.10;;;5.70;;
14688;SDS011;7432;48.728;9.154;2022-12-13T13:40:25;12.40;;;5.97;;
14688;SDS011;7432;48.728;9.154;2022-12-13T13:43:01;11.60;;;6.53;;
14688;SDS011;7432;48.728;9.154;2022-12-13T13:48:36;11.40;;;6.23;;
14688;SDS011;7432;48.728;9.154;2022-12-13T13:51:29;10.67;;;5.87;;
14688;SDS011;7432;48.728;9.154;2022-12-13T13:54:24;12.47;;;6.10;;
14688;SDS011;7432;48.728;9.154;2022-12-13T13:57:13;11.97;;;6.27;;
14688;SDS011;7432;48.728;9.154;2022-12-13T14:00:10;10.97;;;5.43;;
14688;SDS011;7432;48.728;9.154;2022-12-13T14:02:52;11.53;;;5.60;;
14688;SDS011;7432;48.728;9.154;2022-12-13T14:05:56;11.23;;;6.63;;
14688;SDS011;7432;48.728;9.154;2022-12-13T14:08:45;15.57;;;7.20;;
14688;SDS011;7432;48.728;9.154;2022-12-13T14:11:40;10.83;;;5.97;;
14688;SDS011;7432;48.728;9.154;2022-12-13T14:14:37;13.63;;;7.20;;
14688;SDS011;7432;48.728;9.154;2022-12-13T14:20:32;11.47;;;5.40;;
14688;SDS011;7432;48.728;9.154;2022-12-13T14:23:09;13.83;;;6.30;;
14688;SDS011;7432;48.728;9.154;2022-12-13T14:25:52;11.30;;;5.70;;
14688;SDS011;7432;48.728;9.154;2022-12-13T14:28:32;12.57;;;5.90;;
14688;SDS011;7432;48.728;9.154;2022-12-13T14:31:12;9.53;;;5.13;;
14688;SDS011;7432;48.728;9.154;2022-12-13T14:33:42;13.47;;;5.33;;
14688;SDS011;7432;48.728;9.154;2022-12-13T14:36:13;8.23;;;5.23;;
14688;SDS011;7432;48.728;9.154;2022-12-13T14:38:42;8.57;;;4.63;;
14688;SDS011;7432;48.728;9.154;2022-12-13T14:41:12;7.57;;;5.30;;
14688;SDS011;7432;48.728;9.154;2022-12-13T14:43:42;7.97;;;5.47;;
14688;SDS011;7432;48.728;9.154;2022-12-13T14:46:09;8.60;;;5.20;;
14688;SDS011;7432;48.728;9.154;2022-12-13T14:48:42;8.17;;;4.47;;
14688;SDS011;7432;48.728;9.154;2022-12-13T14:51:18;9.33;;;4.73;;
14688;SDS011;7432;48.728;9.154;2022-12-13T14:53:55;12.33;;;5.33;;
14688;SDS011;7432;48.728;9.154;2022-12-13T14:56:21;8.47;;;4.80;;
14688;SDS011;7432;48.728;9.154;2022-12-13T14:58:51;7.30;;;4.83;;
14688;SDS011;7432;48.728;9.154;2022-12-13T15:01:27;9.17;;;5.10;;
14688;SDS011;7432;48.728;9.154;2022-12-13T15:06:49;9.20;;;5.17;;
14688;SDS011;7432;48.728;9.154;2022-12-13T15:09:22;10.40;;;5.40;;
14688;SDS011;7432;48.728;9.154;2022-12-13T15:11:49;14.63;;;6.23;;
14688;SDS011;7432;48.728;9.154;2022-12-13T15:14:17;13.47;;;6.83;;
14688;SDS011;7432;48.728;9.154;2022-12-13T15:16:46;10.60;;;6.33;;
14688;SDS011;7432;48.728;9.154;2022-12-13T15:19:14;12.50;;;6.70;;
14688;SDS011;7432;48.728;9.154;2022-12-13T15:21:53;13.97;;;7.27;;
14688;SDS011;7432;48.728;9.154;2022-12-13T15:24:21;12.37;;;6.57;;